createdAt,value
2022-08-26T00:01:32.683Z,13.50
2022-08-26T00:04:25.492Z,13.35
2022-08-26T00:07:14.653Z,13.30
2022-08-26T00:10:03.011Z,17.42
2022-08-26T00:12:52.945Z,14.50
2022-08-26T00:15:41.888Z,16.48
2022-08-26T00:18:30.977Z,17.05
2022-08-26T00:21:27.209Z,15.13
2022-08-26T00:24:15.822Z,14.45
2022-08-26T00:27:04.266Z,14.05
2022-08-26T00:29:56.339Z,14.45
2022-08-26T00:32:46.385Z,14.55
2022-08-26T00:35:36.601Z,14.32
2022-08-26T00:38:25.261Z,14.85
2022-08-26T00:41:13.804Z,14.60
2022-08-26T00:44:02.290Z,14.15
2022-08-26T00:47:01.531Z,16.05
2022-08-26T00:49:51.575Z,15.52
2022-08-26T00:52:41.567Z,16.35
2022-08-26T00:55:37.907Z,14.52
2022-08-26T00:58:29.592Z,14.88
2022-08-26T01:01:18.838Z,16.17
2022-08-26T01:04:15.248Z,15.38
2022-08-26T01:07:04.787Z,15.85
2022-08-26T01:09:54.298Z,15.73
2022-08-26T01:12:47.460Z,15.65
2022-08-26T01:15:42.734Z,15.30
2022-08-26T01:18:31.623Z,15.85
2022-08-26T01:21:32.232Z,15.82
2022-08-26T01:24:21.946Z,14.57
2022-08-26T01:27:13.804Z,15.38
2022-08-26T01:30:03.410Z,14.27
2022-08-26T01:32:53.125Z,14.95
2022-08-26T01:35:43.110Z,14.93
2022-08-26T01:38:31.604Z,15.15
2022-08-26T01:41:27.178Z,15.60
2022-08-26T01:44:23.618Z,15.82
2022-08-26T01:47:14.325Z,13.57
2022-08-26T01:50:10.530Z,15.05
2022-08-26T01:53:04.295Z,14.00
2022-08-26T01:55:57.151Z,13.88
2022-08-26T01:58:51.602Z,14.50
2022-08-26T02:01:40.149Z,14.25
2022-08-26T02:04:34.999Z,13.77
2022-08-26T02:07:26.767Z,13.93
2022-08-26T02:10:16.190Z,13.90
2022-08-26T02:13:05.582Z,14.98
2022-08-26T02:15:56.343Z,13.90
2022-08-26T02:18:46.867Z,14.45
2022-08-26T02:21:36.029Z,14.52
2022-08-26T02:24:27.823Z,14.43
2022-08-26T02:27:16.786Z,14.00
2022-08-26T02:30:11.349Z,14.40
2022-08-26T02:33:03.806Z,13.90
2022-08-26T02:35:52.133Z,14.02
2022-08-26T02:38:40.514Z,14.32
2022-08-26T02:41:31.544Z,14.65
2022-08-26T02:44:21.065Z,15.45
2022-08-26T02:47:09.564Z,17.42
2022-08-26T02:49:59.401Z,16.25
2022-08-26T02:52:48.545Z,15.25
2022-08-26T02:55:37.069Z,15.25
2022-08-26T02:58:27.572Z,14.98
2022-08-26T03:01:24.442Z,16.20
2022-08-26T03:04:13.954Z,15.88
2022-08-26T03:07:05.498Z,15.98
2022-08-26T03:09:54.907Z,15.80
2022-08-26T03:12:47.538Z,16.20
2022-08-26T03:15:36.614Z,15.80
2022-08-26T03:18:25.717Z,15.52
2022-08-26T03:21:17.121Z,14.63
2022-08-26T03:24:11.247Z,14.98
2022-08-26T03:27:01.962Z,15.07
2022-08-26T03:30:13.074Z,14.68
2022-08-26T03:33:04.292Z,15.27
2022-08-26T03:35:53.324Z,15.20
2022-08-26T03:38:41.896Z,15.88
2022-08-26T03:41:35.971Z,14.73
2022-08-26T03:44:24.361Z,16.50
2022-08-26T03:47:13.545Z,15.48
2022-08-26T03:50:02.441Z,16.50
2022-08-26T03:52:51.870Z,17.10
2022-08-26T03:55:40.533Z,16.27
2022-08-26T03:58:32.254Z,15.32
2022-08-26T04:01:20.855Z,17.15
2022-08-26T04:04:09.725Z,16.25
2022-08-26T04:07:03.903Z,16.05
2022-08-26T04:09:55.249Z,16.75
2022-08-26T04:12:43.870Z,15.98
2022-08-26T04:15:34.015Z,21.45
2022-08-26T04:18:23.040Z,18.63
2022-08-26T04:21:12.730Z,16.17
2022-08-26T04:24:04.138Z,16.65
2022-08-26T04:26:52.836Z,15.48
2022-08-26T04:29:41.762Z,14.82
2022-08-26T04:32:31.471Z,14.05
2022-08-26T04:35:25.487Z,15.20
2022-08-26T04:38:16.354Z,14.63
2022-08-26T04:41:05.598Z,13.45
2022-08-26T04:44:06.464Z,13.85
2022-08-26T04:46:55.569Z,15.43
2022-08-26T04:49:45.745Z,15.40
2022-08-26T04:52:36.136Z,13.55
2022-08-26T04:55:38.486Z,13.63
2022-08-26T04:58:28.428Z,13.10
2022-08-26T05:01:17.126Z,12.60
2022-08-26T05:04:06.275Z,12.07
2022-08-26T05:07:02.292Z,14.35
2022-08-26T05:09:51.385Z,20.50
2022-08-26T05:12:39.713Z,14.13
2022-08-26T05:15:28.986Z,14.02
2022-08-26T05:18:20.007Z,13.52
2022-08-26T05:21:09.198Z,15.35
2022-08-26T05:23:59.030Z,14.02
2022-08-26T05:26:48.251Z,13.95
2022-08-26T05:29:36.746Z,13.75
2022-08-26T05:32:25.098Z,15.48
2022-08-26T05:35:13.638Z,34.40
2022-08-26T05:38:12.258Z,31.15
2022-08-26T05:41:02.420Z,40.58
2022-08-26T05:43:52.743Z,53.05
2022-08-26T05:46:44.892Z,56.35
2022-08-26T05:49:33.385Z,48.80
2022-08-26T05:52:25.871Z,26.33
2022-08-26T05:55:14.593Z,27.65
2022-08-26T05:58:05.927Z,29.00
2022-08-26T06:00:59.411Z,55.53
2022-08-26T06:03:51.810Z,23.92
2022-08-26T06:06:41.907Z,20.73
2022-08-26T06:09:31.678Z,13.35
2022-08-26T06:12:21.425Z,21.38
2022-08-26T06:15:12.714Z,23.05
2022-08-26T06:18:04.006Z,13.98
2022-08-26T06:20:58.059Z,11.50
2022-08-26T06:24:06.957Z,13.75
2022-08-26T06:26:57.537Z,11.48
2022-08-26T06:29:45.855Z,10.38
2022-08-26T06:32:36.155Z,10.70
2022-08-26T06:35:24.795Z,14.43
2022-08-26T06:38:14.013Z,14.65
2022-08-26T06:41:02.539Z,12.98
2022-08-26T06:43:51.614Z,13.23
2022-08-26T06:46:40.697Z,11.43
2022-08-26T06:49:30.455Z,13.93
2022-08-26T06:52:24.432Z,11.73
2022-08-26T06:55:13.411Z,17.35
2022-08-26T06:58:01.795Z,10.63
2022-08-26T07:00:52.934Z,12.40
2022-08-26T07:03:41.305Z,11.55
2022-08-26T07:06:32.727Z,10.13
2022-08-26T07:09:23.215Z,17.23
2022-08-26T07:12:11.658Z,14.98
2022-08-26T07:15:00.010Z,13.60
2022-08-26T07:17:48.449Z,10.98
2022-08-26T07:20:42.258Z,14.48
2022-08-26T07:23:32.420Z,12.18
2022-08-26T07:26:23.766Z,11.38
2022-08-26T07:29:14.927Z,16.05
2022-08-26T07:32:03.891Z,11.95
2022-08-26T07:34:52.871Z,15.38
2022-08-26T07:37:41.305Z,12.07
2022-08-26T07:40:31.682Z,15.20
2022-08-26T07:43:20.235Z,11.15
2022-08-26T07:46:11.299Z,13.02
2022-08-26T07:49:03.196Z,14.80
2022-08-26T07:51:52.419Z,13.05
2022-08-26T07:54:40.910Z,13.40
2022-08-26T07:57:31.664Z,11.70
2022-08-26T08:00:25.501Z,9.25
2022-08-26T08:03:15.181Z,11.05
2022-08-26T08:06:03.673Z,12.45
2022-08-26T08:08:52.781Z,11.75
2022-08-26T08:11:41.533Z,9.70
2022-08-26T08:14:34.666Z,10.85
2022-08-26T08:17:23.215Z,10.27
2022-08-26T08:20:12.684Z,15.15
2022-08-26T08:23:02.473Z,11.73
2022-08-26T08:25:50.922Z,12.18
2022-08-26T08:28:39.964Z,9.75
2022-08-26T08:31:55.767Z,15.15
2022-08-26T08:37:35.704Z,9.80
2022-08-26T08:40:29.215Z,10.40
2022-08-26T08:43:32.162Z,11.10
2022-08-26T08:46:26.233Z,15.30
2022-08-26T08:49:16.754Z,13.15
2022-08-26T08:52:13.534Z,11.68
2022-08-26T08:55:02.419Z,12.10
2022-08-26T08:58:03.392Z,9.85
2022-08-26T09:01:03.139Z,9.30
2022-08-26T09:04:02.515Z,9.00
2022-08-26T09:09:48.648Z,11.13
2022-08-26T09:12:37.224Z,13.00
2022-08-26T09:15:30.583Z,9.68
2022-08-26T09:18:34.726Z,10.70
2022-08-26T09:21:25.134Z,11.48
2022-08-26T09:24:15.131Z,13.93
2022-08-26T09:27:07.101Z,9.68
2022-08-26T09:30:00.790Z,13.88
2022-08-26T09:33:00.280Z,13.18
2022-08-26T09:35:52.406Z,10.75
2022-08-26T09:38:41.546Z,10.70
2022-08-26T09:41:34.136Z,11.07
2022-08-26T09:44:22.619Z,9.63
2022-08-26T09:47:11.611Z,9.00
2022-08-26T09:50:09.697Z,12.93
2022-08-26T09:53:12.950Z,12.68
2022-08-26T09:56:18.463Z,10.45
2022-08-26T09:59:11.215Z,10.00
2022-08-26T10:02:18.487Z,13.73
2022-08-26T10:05:11.332Z,10.45
2022-08-26T10:08:00.362Z,9.95
2022-08-26T10:10:53.177Z,15.20
2022-08-26T10:13:46.289Z,12.00
2022-08-26T10:16:49.893Z,12.55
2022-08-26T10:19:55.732Z,9.73
2022-08-26T10:22:51.373Z,10.77
2022-08-26T10:25:46.653Z,13.02
2022-08-26T10:28:41.606Z,10.30
2022-08-26T10:31:40.944Z,10.18
2022-08-26T10:34:29.978Z,9.32
2022-08-26T10:37:21.388Z,10.48
2022-08-26T10:40:15.554Z,18.40
2022-08-26T10:43:11.237Z,13.77
2022-08-26T10:46:06.967Z,10.50
2022-08-26T10:48:59.982Z,7.85
2022-08-26T10:51:58.907Z,12.40
2022-08-26T10:54:53.937Z,12.52
2022-08-26T10:57:51.779Z,10.20
2022-08-26T11:01:02.361Z,8.13
2022-08-26T11:04:08.741Z,7.07
2022-08-26T11:07:36.394Z,7.75
2022-08-26T11:11:04.478Z,10.73
2022-08-26T11:14:00.429Z,9.27
2022-08-26T11:16:52.002Z,10.20
2022-08-26T11:20:13.766Z,9.65
2022-08-26T11:23:38.475Z,7.13
2022-08-26T11:26:56.192Z,8.60
2022-08-26T11:29:59.387Z,9.43
2022-08-26T11:32:50.600Z,14.85
2022-08-26T11:35:52.402Z,9.73
2022-08-26T11:38:43.733Z,12.45
2022-08-26T11:41:34.354Z,8.30
2022-08-26T11:44:25.790Z,8.23
2022-08-26T11:47:17.598Z,7.50
2022-08-26T11:50:10.671Z,9.23
2022-08-26T11:53:06.374Z,10.30
2022-08-26T11:55:58.225Z,9.80
2022-08-26T11:58:48.210Z,6.25
2022-08-26T12:01:38.352Z,11.27
2022-08-26T12:04:31.519Z,9.15
2022-08-26T12:07:24.934Z,9.02
2022-08-26T12:10:29.538Z,10.25
2022-08-26T12:13:23.229Z,10.00
2022-08-26T12:16:12.289Z,10.40
2022-08-26T12:19:01.099Z,10.18
2022-08-26T12:21:50.828Z,7.43
2022-08-26T12:24:45.001Z,7.75
2022-08-26T12:27:39.876Z,5.82
2022-08-26T12:30:29.952Z,8.73
2022-08-26T12:33:22.994Z,6.15
2022-08-26T12:36:23.740Z,7.22
2022-08-26T12:39:14.573Z,6.53
2022-08-26T12:42:05.005Z,7.88
2022-08-26T12:45:03.859Z,9.98
2022-08-26T12:47:57.454Z,6.47
2022-08-26T12:50:48.723Z,6.72
2022-08-26T12:53:44.318Z,6.25
2022-08-26T12:56:38.533Z,6.47
2022-08-26T12:59:27.472Z,7.00
2022-08-26T13:02:38.499Z,7.05
2022-08-26T13:05:33.203Z,6.13
2022-08-26T13:08:27.798Z,7.43
2022-08-26T13:11:20.721Z,6.90
2022-08-26T13:14:10.944Z,8.95
2022-08-26T13:16:59.487Z,6.75
2022-08-26T13:19:49.343Z,6.10
2022-08-26T13:22:38.432Z,7.13
2022-08-26T13:25:27.202Z,5.43
2022-08-26T13:28:15.579Z,8.98
2022-08-26T13:31:05.355Z,5.22
2022-08-26T13:33:54.032Z,7.22
2022-08-26T13:36:45.091Z,12.93
2022-08-26T13:39:34.240Z,6.70
2022-08-26T13:42:23.060Z,7.20
2022-08-26T13:45:12.538Z,6.28
2022-08-26T13:48:01.151Z,5.78
2022-08-26T13:50:49.905Z,6.95
2022-08-26T13:53:39.726Z,8.05
2022-08-26T13:56:30.977Z,6.95
2022-08-26T13:59:19.549Z,7.45
2022-08-26T14:02:08.661Z,8.32
2022-08-26T14:04:58.534Z,8.32
2022-08-26T14:07:47.084Z,13.00
2022-08-26T14:10:37.212Z,7.22
2022-08-26T14:13:25.816Z,8.18
2022-08-26T14:16:20.835Z,7.03
2022-08-26T14:19:10.284Z,8.73
2022-08-26T14:22:01.145Z,9.00
2022-08-26T14:24:50.383Z,6.60
2022-08-26T14:27:40.889Z,5.65
2022-08-26T14:30:30.004Z,8.02
2022-08-26T14:33:21.177Z,7.32
2022-08-26T14:36:27.376Z,8.27
2022-08-26T14:39:15.941Z,7.07
2022-08-26T14:42:04.443Z,7.57
2022-08-26T14:44:57.711Z,6.70
2022-08-26T14:47:47.720Z,7.03
2022-08-26T14:50:36.435Z,9.85
2022-08-26T14:53:42.461Z,6.95
2022-08-26T14:56:32.433Z,8.27
2022-08-26T14:59:23.954Z,7.97
2022-08-26T15:02:32.615Z,9.38
2022-08-26T15:05:22.375Z,7.88
2022-08-26T15:08:10.991Z,7.25
2022-08-26T15:10:59.650Z,6.97
2022-08-26T15:13:48.620Z,11.07
2022-08-26T15:16:37.435Z,7.40
2022-08-26T15:19:28.444Z,7.97
2022-08-26T15:22:16.951Z,8.18
2022-08-26T15:25:06.373Z,8.18
2022-08-26T15:27:54.981Z,11.07
2022-08-26T15:30:44.278Z,7.05
2022-08-26T15:33:33.249Z,6.22
2022-08-26T15:36:23.063Z,8.75
2022-08-26T15:39:12.429Z,6.82
2022-08-26T15:42:01.122Z,9.73
2022-08-26T15:44:50.043Z,9.43
2022-08-26T15:48:00.814Z,6.63
2022-08-26T15:50:52.441Z,11.45
2022-08-26T15:53:42.323Z,7.53
2022-08-26T15:56:32.687Z,6.47
2022-08-26T15:59:25.999Z,8.85
2022-08-26T16:02:14.714Z,7.47
2022-08-26T16:05:03.484Z,6.70
2022-08-26T16:07:51.917Z,7.35
2022-08-26T16:10:49.216Z,7.45
2022-08-26T16:13:39.994Z,8.20
2022-08-26T16:16:28.948Z,8.45
2022-08-26T16:19:17.580Z,7.30
2022-08-26T16:22:09.267Z,6.70
2022-08-26T16:24:58.641Z,8.48
2022-08-26T16:27:48.435Z,8.82
2022-08-26T16:30:37.108Z,8.82
2022-08-26T16:33:30.062Z,7.38
2022-08-26T16:36:18.592Z,8.50
2022-08-26T16:39:08.781Z,7.97
2022-08-26T16:41:57.325Z,8.43
2022-08-26T16:44:47.125Z,8.02
2022-08-26T16:47:35.728Z,6.85
2022-08-26T16:50:25.409Z,7.47
2022-08-26T16:56:03.547Z,8.88
2022-08-26T16:58:54.211Z,7.32
2022-08-26T17:01:44.225Z,8.07
2022-08-26T17:04:33.131Z,7.20
2022-08-26T17:07:21.557Z,10.48
2022-08-26T17:10:11.330Z,6.75
2022-08-26T17:12:59.845Z,6.90
2022-08-26T17:15:54.210Z,8.30
2022-08-26T17:18:48.594Z,6.53
2022-08-26T17:21:37.932Z,9.23
2022-08-26T17:24:26.333Z,6.18
2022-08-26T17:27:14.971Z,7.30
2022-08-26T17:30:03.475Z,6.82
2022-08-26T17:32:51.906Z,7.45
2022-08-26T17:35:41.899Z,7.00
2022-08-26T17:38:30.453Z,6.90
2022-08-26T17:41:20.020Z,6.40
2022-08-26T17:44:08.751Z,7.03
2022-08-26T17:46:57.541Z,7.70
2022-08-26T17:49:46.108Z,11.32
2022-08-26T17:52:35.972Z,12.57
2022-08-26T17:55:24.469Z,10.23
2022-08-26T17:58:14.655Z,9.32
2022-08-26T18:01:04.791Z,7.00
2022-08-26T18:04:00.072Z,8.75
2022-08-26T18:06:49.567Z,9.38
2022-08-26T18:09:39.467Z,10.98
2022-08-26T18:12:27.883Z,10.05
2022-08-26T18:15:18.594Z,8.57
2022-08-26T18:18:07.274Z,9.80
2022-08-26T18:21:01.847Z,12.82
2022-08-26T18:23:51.672Z,10.35
2022-08-26T18:26:48.088Z,9.65
2022-08-26T18:29:36.589Z,12.55
2022-08-26T18:32:33.958Z,9.20
2022-08-26T18:35:22.443Z,10.20
2022-08-26T18:38:13.877Z,10.63
2022-08-26T18:41:05.511Z,10.32
2022-08-26T18:43:55.814Z,8.63
2022-08-26T18:46:45.279Z,7.22
2022-08-26T18:49:33.670Z,9.40
2022-08-26T18:52:22.752Z,8.48
2022-08-26T18:55:12.739Z,8.13
2022-08-26T18:58:01.241Z,8.85
2022-08-26T19:00:51.364Z,7.85
2022-08-26T19:03:39.911Z,8.65
2022-08-26T19:06:32.925Z,7.13
2022-08-26T19:09:22.525Z,9.10
2022-08-26T19:12:11.596Z,7.38
2022-08-26T19:15:01.707Z,6.70
2022-08-26T19:17:51.576Z,7.88
2022-08-26T19:20:44.726Z,7.32
2022-08-26T19:23:35.367Z,9.35
2022-08-26T19:26:25.129Z,8.07
2022-08-26T19:29:15.326Z,7.85
2022-08-26T19:32:04.951Z,8.57
2022-08-26T19:34:55.054Z,7.97
2022-08-26T19:37:43.494Z,6.65
2022-08-26T19:40:34.954Z,7.95
2022-08-26T19:43:23.442Z,7.90
2022-08-26T19:46:13.592Z,7.32
2022-08-26T19:49:02.197Z,9.07
2022-08-26T19:51:54.521Z,13.85
2022-08-26T19:54:43.048Z,7.60
2022-08-26T19:57:31.744Z,9.73
2022-08-26T20:00:25.728Z,9.52
2022-08-26T20:03:16.172Z,9.50
2022-08-26T20:06:06.517Z,10.85
2022-08-26T20:08:56.516Z,12.20
2022-08-26T20:11:44.999Z,8.30
2022-08-26T20:14:34.010Z,11.38
2022-08-26T20:17:22.666Z,11.93
2022-08-26T20:20:33.363Z,8.60
2022-08-26T20:23:22.314Z,11.25
2022-08-26T20:26:12.160Z,8.50
2022-08-26T20:29:01.422Z,11.07
2022-08-26T20:31:50.756Z,8.77
2022-08-26T20:34:40.146Z,8.90
2022-08-26T20:37:29.462Z,9.10
2022-08-26T20:40:18.058Z,8.18
2022-08-26T20:43:07.920Z,8.15
2022-08-26T20:45:56.398Z,9.15
2022-08-26T20:48:44.966Z,8.90
2022-08-26T20:51:34.755Z,8.95
2022-08-26T20:54:28.185Z,9.23
2022-08-26T20:57:17.045Z,8.60
2022-08-26T21:00:08.162Z,9.82
2022-08-26T21:02:57.477Z,9.27
2022-08-26T21:05:45.946Z,8.70
2022-08-26T21:08:34.450Z,8.98
2022-08-26T21:11:23.202Z,8.45
2022-08-26T21:14:16.620Z,8.15
2022-08-26T21:17:07.144Z,9.55
2022-08-26T21:19:55.735Z,9.52
2022-08-26T21:22:44.498Z,9.07
2022-08-26T21:25:33.066Z,10.85
2022-08-26T21:28:21.578Z,8.73
2022-08-26T21:31:13.140Z,8.00
2022-08-26T21:34:03.059Z,9.43
2022-08-26T21:36:51.666Z,9.02
2022-08-26T21:39:40.070Z,8.80
2022-08-26T21:42:33.110Z,11.60
2022-08-26T21:45:21.749Z,8.63
2022-08-26T21:48:10.419Z,8.50
2022-08-26T21:51:00.332Z,10.52
2022-08-26T21:53:48.870Z,8.55
2022-08-26T21:56:39.748Z,7.93
2022-08-26T21:59:28.507Z,12.27
2022-08-26T22:02:17.112Z,7.88
2022-08-26T22:05:06.526Z,7.57
2022-08-26T22:07:56.594Z,9.77
2022-08-26T22:10:45.172Z,7.13
2022-08-26T22:13:36.389Z,8.07
2022-08-26T22:16:26.125Z,8.25
2022-08-26T22:19:17.092Z,8.32
2022-08-26T22:22:06.053Z,7.95
2022-08-26T22:24:55.832Z,7.53
2022-08-26T22:27:44.183Z,8.85
2022-08-26T22:30:35.209Z,9.68
2022-08-26T22:33:24.735Z,9.88
2022-08-26T22:36:18.499Z,8.77
2022-08-26T22:39:06.914Z,9.40
2022-08-26T22:42:01.641Z,10.30
2022-08-26T22:44:50.097Z,10.25
2022-08-26T22:47:39.054Z,10.15
2022-08-26T22:50:27.923Z,12.77
2022-08-26T22:53:17.895Z,11.32
2022-08-26T22:56:06.973Z,11.27
2022-08-26T22:58:57.015Z,10.90
2022-08-26T23:01:46.953Z,11.13
2022-08-26T23:04:35.651Z,11.82
2022-08-26T23:07:24.281Z,10.60
2022-08-26T23:10:13.366Z,10.73
2022-08-26T23:13:04.333Z,10.23
2022-08-26T23:16:02.180Z,10.98
2022-08-26T23:18:50.731Z,10.60
2022-08-26T23:21:39.577Z,12.32
2022-08-26T23:24:28.219Z,13.25
2022-08-26T23:27:16.861Z,12.20
2022-08-26T23:30:05.946Z,12.65
2022-08-26T23:32:55.769Z,11.45
2022-08-26T23:35:44.311Z,10.93
2022-08-26T23:38:32.753Z,11.35
2022-08-26T23:41:22.757Z,14.25
2022-08-26T23:44:11.874Z,13.30
2022-08-26T23:47:00.803Z,11.80
2022-08-26T23:49:50.549Z,11.07
2022-08-26T23:52:56.880Z,11.18
2022-08-26T23:55:45.372Z,11.10
2022-08-26T23:58:33.878Z,11.40
